Time;durP1;ratioP1;P1;durP2;ratioP2;P2;SDS_P1;SDS_P2;PMS_P1;PMS_P2;Temp;Humidity;BMP_temperature;BMP_pressure;BME280_temperature;BME280_humidity;BME280_pressure;Samples;Min_cycle;Max_cycle;Signal;HPM_P1;HPM_P2
2022/04/11 00:01:04;;;;;;;2.30;1.23;;;;;;;;;;5004282;28;20033;-67
2022/04/11 00:03:30;;;;;;;3.10;0.98;;;;;;;;;;5004441;28;20045;-65
2022/04/11 00:05:56;;;;;;;1.75;1.65;;;;;;;;;;4999722;28;20025;-68
2022/04/11 00:08:23;;;;;;;2.03;1.83;;;;;;;;;;5003190;28;20446;-66
2022/04/11 00:10:49;;;;;;;1.02;0.93;;;;;;;;;;5004128;28;20563;-67
2022/04/11 00:13:15;;;;;;;2.20;1.30;;;;;;;;;;5001869;28;20033;-67
2022/04/11 00:15:41;;;;;;;1.42;1.13;;;;;;;;;;5002325;28;20057;-68
2022/04/11 00:18:08;;;;;;;1.20;1.10;;;;;;;;;;5005686;28;20032;-67
2022/04/11 00:20:34;;;;;;;1.33;1.23;;;;;;;;;;5004922;28;20022;-67
2022/04/11 00:23:00;;;;;;;1.23;1.13;;;;;;;;;;5007540;28;20049;-68
2022/04/11 00:25:26;;;;;;;2.20;1.60;;;;;;;;;;5008459;28;20137;-67
2022/04/11 00:27:52;;;;;;;1.60;1.23;;;;;;;;;;5008700;28;20029;-67
2022/04/11 00:30:18;;;;;;;1.65;1.38;;;;;;;;;;5009747;28;20037;-67
2022/04/11 00:32:44;;;;;;;5.55;1.52;;;;;;;;;;5006656;28;20026;-65
2022/04/11 00:35:11;;;;;;;2.05;1.80;;;;;;;;;;5007811;28;20171;-67
2022/04/11 00:37:40;;;;;;;2.38;1.42;;;;;;;;;;5007191;28;20521;-67
2022/04/11 00:40:07;;;;;;;1.92;1.20;;;;;;;;;;5008307;28;20030;-66
2022/04/11 00:42:33;;;;;;;2.45;1.25;;;;;;;;;;5008185;28;20036;-67
2022/04/11 00:44:59;;;;;;;1.85;1.65;;;;;;;;;;5005556;28;20651;-67
2022/04/11 00:47:26;;;;;;;1.35;1.10;;;;;;;;;;5000494;28;20033;-67
2022/04/11 00:49:55;;;;;;;1.40;1.00;;;5.80;81.10;;;;;;5006120;28;20403;-67
2022/04/11 00:52:21;;;;;;;2.45;1.50;;;;;;;;;;5006773;28;21577;-68
2022/04/11 00:54:47;;;;;;;4.40;1.60;;;5.80;97.10;;;;;;5006121;28;20050;-66
2022/04/11 00:57:15;;;;;;;2.03;1.77;;;;;;;;;;5006141;28;20079;-67
2022/04/11 00:59:41;;;;;;;5.80;1.65;;;;;;;;;;5005431;28;20050;-68
2022/04/11 01:02:07;;;;;;;1.95;1.20;;;;;;;;;;5005691;28;20963;-68
2022/04/11 01:04:34;;;;;;;1.02;0.93;;;;;;;;;;5007500;28;20466;-67
2022/04/11 01:07:00;;;;;;;2.03;1.85;;;;;;;;;;5007373;28;20033;-67
2022/04/11 01:09:26;;;;;;;8.43;1.17;;;;;;;;;;5006605;28;20128;-68
2022/04/11 01:11:53;;;;;;;6.50;1.02;;;5.50;83.50;;;;;;5004506;28;20022;-67
2022/04/11 01:14:21;;;;;;;2.65;1.27;;;;;;;;;;5003765;28;20064;-67
2022/04/11 01:16:51;;;;;;;3.45;1.00;;;;;;;;;;5005758;28;20053;-69
2022/04/11 01:19:19;;;;;;;2.47;2.10;;;5.20;84.20;;;;;;5006115;28;20449;-67
2022/04/11 01:21:45;;;;;;;0.80;0.80;;;;;;;;;;5006269;28;20025;-67
2022/04/11 01:24:11;;;;;;;1.30;0.93;;;;;;;;;;5005497;28;20061;-68
2022/04/11 01:26:38;;;;;;;1.65;1.20;;;;;;;;;;5004954;28;20100;-66
2022/04/11 01:29:04;;;;;;;1.33;1.23;;;;;;;;;;5003879;28;20042;-66
2022/04/11 01:31:32;;;;;;;1.23;0.93;;;5.30;85.20;;;;;;5005953;28;20109;-67
2022/04/11 01:33:59;;;;;;;4.53;1.10;;;;;;;;;;5036947;28;20026;-67
2022/04/11 01:36:25;;;;;;;1.88;1.30;;;;;;;;;;5007226;28;20033;-66
2022/04/11 01:38:50;;;;;;;1.77;1.63;;;5.50;91.80;;;;;;4999669;28;20057;-65
2022/04/11 01:41:16;;;;;;;0.82;0.82;;;;;;;;;;5004804;28;20064;-66
2022/04/11 01:43:45;;;;;;;3.58;1.55;;;;;;;;;;5007208;28;20038;-67
2022/04/11 01:46:11;;;;;;;1.60;0.90;;;;;;;;;;5007212;28;20506;-67
2022/04/11 01:48:37;;;;;;;1.15;1.15;;;;;;;;;;5023068;28;20033;-67
2022/04/11 01:51:03;;;;;;;5.70;1.25;;;;;;;;;;5001636;28;20907;-67
2022/04/11 01:53:29;;;;;;;1.33;1.08;;;;;;;;;;5004410;28;20533;-67
2022/04/11 01:55:55;;;;;;;2.97;1.65;;;;;;;;;;5001623;28;20049;-66
2022/04/11 01:58:21;;;;;;;1.08;1.05;;;;;;;;;;5005789;28;20479;-69
2022/04/11 02:00:47;;;;;;;2.72;1.52;;;;;;;;;;5006343;28;20045;-68
2022/04/11 02:03:13;;;;;;;1.92;1.73;;;4.80;97.90;;;;;;5005982;28;20034;-68
2022/04/11 02:05:40;;;;;;;3.22;1.35;;;;;;;;;;5017594;28;20109;-67
2022/04/11 02:08:07;;;;;;;4.53;1.40;;;;;;;;;;5002758;28;20547;-67
2022/04/11 02:10:33;;;;;;;1.83;1.42;;;;;;;;;;5005780;28;20026;-66
2022/04/11 02:12:59;;;;;;;1.42;1.20;;;;;;;;;;5005051;28;20034;-68
2022/04/11 02:15:25;;;;;;;1.38;1.10;;;;;;;;;;5005273;28;20040;-67
2022/04/11 02:17:51;;;;;;;1.42;0.85;;;;;;;;;;5003703;28;20057;-67
2022/04/11 02:20:18;;;;;;;0.90;0.70;;;;;;;;;;5002757;28;20076;-68
2022/04/11 02:22:45;;;;;;;1.38;1.27;;;;;;;;;;5004253;28;20061;-66
2022/04/11 02:25:11;;;;;;;4.82;1.58;;;;;;;;;;5004978;28;20062;-64
2022/04/11 02:27:37;;;;;;;3.65;1.00;;;;;;;;;;5006484;28;20088;-65
2022/04/11 02:30:04;;;;;;;3.25;2.03;;;;;;;;;;5004992;28;20034;-66
2022/04/11 02:32:30;;;;;;;1.88;1.60;;;;;;;;;;5003375;28;20068;-66
2022/04/11 02:34:56;;;;;;;5.20;2.58;;;;;;;;;;5003994;28;20050;-66
2022/04/11 02:37:22;;;;;;;1.10;1.00;;;;;;;;;;5005209;28;20050;-67
2022/04/11 02:39:48;;;;;;;1.65;1.38;;;;;;;;;;5035880;28;20033;-65
2022/04/11 02:42:21;;;;;;;1.13;1.02;;;;;;;;;;5003620;28;20506;-65
2022/04/11 02:44:47;;;;;;;2.60;1.23;;;4.20;99.90;;;;;;5004988;28;20087;-67
2022/04/11 02:47:12;;;;;;;0.70;0.70;;;3.90;93.30;;;;;;5004649;28;20521;-65
2022/04/11 02:49:38;;;;;;;0.63;0.63;;;;;;;;;;5005124;28;20545;-66
2022/04/11 02:52:04;;;;;;;1.90;1.02;;;;;;;;;;5005321;28;20045;-67
2022/04/11 02:54:30;;;;;;;1.20;1.10;;;;;;;;;;5003439;28;20042;-65
2022/04/11 02:56:56;;;;;;;1.83;1.42;;;;;;;;;;5001908;28;20033;-67
2022/04/11 02:59:23;;;;;;;2.45;0.93;;;;;;;;;;5003149;28;20734;-65
2022/04/11 03:01:49;;;;;;;1.90;1.23;;;;;;;;;;5004298;28;20097;-66
2022/04/11 03:04:15;;;;;;;2.38;1.05;;;;;;;;;;5002650;28;20415;-65
2022/04/11 03:06:41;;;;;;;1.17;0.93;;;;;;;;;;5003510;28;20839;-66
2022/04/11 03:09:08;;;;;;;2.00;1.80;;;;;;;;;;5002095;28;20025;-65
2022/04/11 03:11:34;;;;;;;1.90;1.20;;;;;;;;;;5002643;28;20030;-66
2022/04/11 03:14:00;;;;;;;4.68;2.10;;;;;;;;;;5002600;28;20025;-65
2022/04/11 03:16:26;;;;;;;4.93;1.52;;;;;;;;;;5002143;28;20065;-67
2022/04/11 03:18:52;;;;;;;5.30;2.03;;;;;;;;;;5002918;28;20024;-66
2022/04/11 03:21:18;;;;;;;4.47;1.35;;;;;;;;;;5003754;28;20511;-66
2022/04/11 03:23:44;;;;;;;1.38;1.20;;;;;;;;;;5002023;28;20088;-65
2022/04/11 03:26:10;;;;;;;1.70;0.90;;;;;;;;;;5000258;28;20636;-66
2022/04/11 03:28:36;;;;;;;1.73;1.60;;;;;;;;;;5004986;28;20022;-64
2022/04/11 03:31:02;;;;;;;2.78;1.60;;;;;;;;;;5005804;28;20026;-65
2022/04/11 03:33:28;;;;;;;1.13;0.93;;;;;;;;;;5005528;28;20437;-65
2022/04/11 03:35:54;;;;;;;1.40;1.00;;;;;;;;;;5001988;28;20038;-65
2022/04/11 03:38:20;;;;;;;1.75;1.42;;;;;;;;;;5003322;28;20450;-67
2022/04/11 03:40:46;;;;;;;3.92;1.30;;;;;;;;;;5004357;28;20026;-67
2022/04/11 03:43:12;;;;;;;1.60;1.50;;;;;;;;;;5004474;28;20042;-65
2022/04/11 03:45:38;;;;;;;2.75;1.42;;;;;;;;;;5004393;28;20087;-66
2022/04/11 03:48:04;;;;;;;3.28;1.55;;;3.50;91.30;;;;;;5002933;28;20057;-66
2022/04/11 03:50:30;;;;;;;2.30;1.52;;;;;;;;;;5002075;28;20025;-67
2022/04/11 03:52:56;;;;;;;1.20;1.10;;;;;;;;;;5005718;28;20519;-68
2022/04/11 03:55:23;;;;;;;3.80;0.93;;;;;;;;;;5007949;28;20058;-67
2022/04/11 03:57:50;;;;;;;5.88;1.35;;;3.20;96.90;;;;;;5007547;28;20399;-67
2022/04/11 04:00:16;;;;;;;1.05;0.93;;;;;;;;;;5006988;28;20044;-65
2022/04/11 04:02:42;;;;;;;1.15;0.80;;;;;;;;;;5005493;28;20049;-67
2022/04/11 04:05:09;;;;;;;2.15;1.73;;;;;;;;;;5006585;28;20026;-65
2022/04/11 04:07:38;;;;;;;2.33;1.75;;;;;;;;;;5007386;28;20060;-67
2022/04/11 04:10:04;;;;;;;2.70;1.65;;;;;;;;;;5007058;28;20494;-65
2022/04/11 04:12:30;;;;;;;1.10;1.00;;;;;;;;;;5007570;28;20044;-66
2022/04/11 04:14:56;;;;;;;4.32;1.55;;;;;;;;;;5006217;28;20032;-65
2022/04/11 04:17:22;;;;;;;2.83;2.15;;;;;;;;;;5005107;28;20034;-66
2022/04/11 04:19:48;;;;;;;2.25;2.05;;;;;;;;;;5005269;28;20034;-66
2022/04/11 04:22:15;;;;;;;2.35;1.70;;;;;;;;;;5007383;28;20452;-66
2022/04/11 04:24:41;;;;;;;2.08;1.73;;;;;;;;;;5007911;28;20060;-66
2022/04/11 04:27:07;;;;;;;1.42;1.00;;;3.00;91.50;;;;;;5008529;28;20054;-66
2022/04/11 04:29:33;;;;;;;2.20;2.00;;;3.20;99.90;;;;;;5004030;28;20033;-64
2022/04/11 04:31:59;;;;;;;2.42;1.75;;;;;;;;;;5005733;28;20500;-66
2022/04/11 04:34:25;;;;;;;1.25;0.80;;;;;;;;;;5006266;28;20041;-66
2022/04/11 04:36:52;;;;;;;1.35;1.25;;;;;;;;;;5005871;28;20029;-66
2022/04/11 04:39:18;;;;;;;2.50;1.42;;;;;;;;;;5003068;28;20076;-64
2022/04/11 04:41:44;;;;;;;1.83;1.40;;;;;;;;;;5004540;28;20133;-66
2022/04/11 04:44:10;;;;;;;3.60;1.52;;;;;;;;;;5003946;28;20128;-66
2022/04/11 04:46:36;;;;;;;2.38;1.55;;;;;;;;;;5006381;28;20075;-66
2022/04/11 04:49:04;;;;;;;2.47;1.65;;;;;;;;;;5005651;28;20034;-66
2022/04/11 04:51:30;;;;;;;0.95;0.95;;;;;;;;;;5009403;28;20026;-65
2022/04/11 04:53:56;;;;;;;2.70;1.65;;;;;;;;;;5005920;28;20034;-67
2022/04/11 04:56:22;;;;;;;0.82;0.82;;;;;;;;;;5007590;28;20073;-67
2022/04/11 04:58:49;;;;;;;4.00;1.45;;;;;;;;;;5006282;28;20072;-68
2022/04/11 05:01:15;;;;;;;0.98;0.95;;;;;;;;;;5005183;28;20061;-68
2022/04/11 05:03:41;;;;;;;1.17;1.10;;;;;;;;;;5004794;28;20843;-67
2022/04/11 05:06:07;;;;;;;1.63;1.40;;;3.20;91.40;;;;;;5004416;28;20026;-68
2022/04/11 05:08:33;;;;;;;5.97;2.08;;;;;;;;;;5005190;28;20018;-65
2022/04/11 05:11:00;;;;;;;1.70;1.58;;;;;;;;;;5004904;28;20026;-67
2022/04/11 05:13:26;;;;;;;3.38;1.85;;;;;;;;;;5005418;28;20453;-65
2022/04/11 05:15:52;;;;;;;11.77;2.00;;;;;;;;;;5006182;28;20036;-66
2022/04/11 05:18:18;;;;;;;2.75;1.20;;;;;;;;;;5004876;28;20052;-65
2022/04/11 05:20:44;;;;;;;5.40;1.95;;;;;;;;;;5002615;28;20149;-67
2022/04/11 05:23:10;;;;;;;2.88;2.38;;;;;;;;;;5003239;28;20045;-67
2022/04/11 05:25:36;;;;;;;3.70;1.67;;;;;;;;;;5000233;28;20601;-67
2022/04/11 05:28:02;;;;;;;1.92;1.50;;;;;;;;;;5004728;28;20494;-67
2022/04/11 05:30:33;;;;;;;2.17;1.13;;;;;;;;;;5004801;28;20034;-69
2022/04/11 05:33:00;;;;;;;3.10;1.63;;;;;;;;;;5001040;28;20029;-66
2022/04/11 05:35:26;;;;;;;3.03;2.42;;;;;;;;;;5002635;28;20560;-67
2022/04/11 05:37:52;;;;;;;4.07;1.85;;;;;;;;;;5002778;28;20033;-66
2022/04/11 05:40:18;;;;;;;6.38;2.25;;;;;;;;;;5003104;28;20026;-66
2022/04/11 05:42:44;;;;;;;3.65;2.80;;;;;;;;;;5002901;28;20037;-66
2022/04/11 05:45:10;;;;;;;9.15;4.32;;;;;;;;;;5003810;28;20034;-66
2022/04/11 05:47:36;;;;;;;3.88;3.17;;;;;;;;;;5002574;28;20038;-66
2022/04/11 05:50:02;;;;;;;6.32;2.85;;;;;;;;;;5002930;28;20158;-66
2022/04/11 05:52:28;;;;;;;2.92;2.05;;;;;;;;;;5003276;28;20502;-65
2022/04/11 05:54:54;;;;;;;2.47;1.95;;;;;;;;;;5004316;28;20100;-66
2022/04/11 05:57:20;;;;;;;6.15;2.83;;;;;;;;;;5004699;28;20597;-64
2022/04/11 05:59:46;;;;;;;4.30;3.00;;;;;;;;;;5008707;28;20120;-64
2022/04/11 06:02:12;;;;;;;1.52;1.42;;;;;;;;;;5008494;28;20038;-66
2022/04/11 06:04:38;;;;;;;3.15;2.35;;;;;;;;;;5006175;28;20080;-66
2022/04/11 06:07:08;;;;;;;2.00;1.55;;;;;;;;;;5007950;28;20033;-65
2022/04/11 06:09:34;;;;;;;3.00;2.05;;;;;;;;;;5008955;28;20055;-64
2022/04/11 06:12:00;;;;;;;3.63;2.63;;;;;;;;;;5008896;28;20040;-66
2022/04/11 06:14:26;;;;;;;9.05;6.22;;;;;;;;;;5007597;28;20037;-65
2022/04/11 06:16:52;;;;;;;10.45;4.70;;;;;;;;;;5007627;28;20063;-65
2022/04/11 06:19:18;;;;;;;3.50;3.08;;;;;;;;;;5005993;28;20029;-65
2022/04/11 06:21:44;;;;;;;5.55;2.40;;;;;;;;;;5008346;28;20099;-65
2022/04/11 06:24:10;;;;;;;4.72;3.10;;;;;;;;;;5006369;28;20065;-67
2022/04/11 06:26:36;;;;;;;5.65;2.83;;;;;;;;;;5008507;28;20036;-66
2022/04/11 06:29:02;;;;;;;3.47;2.40;;;;;;;;;;5007839;28;20038;-66
2022/04/11 06:31:28;;;;;;;4.95;3.28;;;;;;;;;;5007259;28;20057;-66
2022/04/11 06:33:54;;;;;;;3.45;2.92;;;;;;;;;;5007999;28;20044;-67
2022/04/11 06:36:20;;;;;;;6.32;3.42;;;;;;;;;;4999151;28;20399;-68
2022/04/11 06:38:46;;;;;;;6.95;2.95;;;;;;;;;;5004257;28;20099;-68
2022/04/11 06:41:12;;;;;;;6.70;3.03;;;;;;;;;;5003784;28;20033;-67
2022/04/11 06:43:38;;;;;;;3.40;2.58;;;;;;;;;;5004515;28;20042;-65
2022/04/11 06:46:04;;;;;;;7.93;2.95;;;;;;;;;;5002883;28;20040;-66
2022/04/11 06:48:30;;;;;;;4.30;3.90;;;;;;;;;;5005702;28;20037;-67
2022/04/11 06:50:57;;;;;;;8.15;3.50;;;;;;;;;;5000962;28;20025;-67
2022/04/11 06:53:23;;;;;;;5.95;2.92;;;;;;;;;;5004072;28;20517;-66
2022/04/11 06:55:49;;;;;;;15.13;2.63;;;;;;;;;;5002979;28;20081;-67
2022/04/11 06:58:18;;;;;;;2.60;2.15;;;;;;;;;;5004380;28;21253;-66
2022/04/11 07:00:45;;;;;;;2.28;1.80;;;;;;;;;;4998437;28;20026;-67
2022/04/11 07:03:11;;;;;;;2.80;2.15;;;;;;;;;;5005142;28;20570;-68
2022/04/11 07:05:38;;;;;;;2.70;2.28;;;;;;;;;;5004384;28;20109;-67
2022/04/11 07:08:04;;;;;;;4.23;2.60;;;;;;;;;;5004167;28;20025;-68
2022/04/11 07:10:31;;;;;;;2.47;2.25;;;9.40;88.10;;;;;;4996833;28;20030;-64
2022/04/11 07:12:58;;;;;;;5.33;2.43;;;9.90;91.80;;;;;;5004357;28;20042;-66
2022/04/11 07:15:24;;;;;;;4.78;2.85;;;;;;;;;;5005750;28;20668;-68
2022/04/11 07:17:50;;;;;;;3.58;2.60;;;;;;;;;;5003414;28;20030;-68
2022/04/11 07:20:16;;;;;;;3.30;2.60;;;;;;;;;;4996043;28;20040;-69
2022/04/11 07:22:42;;;;;;;4.85;3.25;;;;;;;;;;5005208;28;20033;-69
2022/04/11 07:25:09;;;;;;;2.80;2.20;;;13.90;69.80;;;;;;5004568;28;20029;-67
2022/04/11 07:27:35;;;;;;;3.00;2.33;;;;;;;;;;5003790;28;20026;-67
2022/04/11 07:30:01;;;;;;;4.10;2.00;;;;;;;;;;4996398;28;20091;-65
2022/04/11 07:32:27;;;;;;;9.18;3.22;;;;;;;;;;5004150;28;20033;-67
2022/04/11 07:34:53;;;;;;;7.70;2.95;;;;;;;;;;5005304;28;20445;-69
2022/04/11 07:37:19;;;;;;;4.70;3.17;;;;;;;;;;5003281;28;20506;-68
2022/04/11 07:39:45;;;;;;;5.05;3.40;;;;;;;;;;4996876;28;20057;-68
2022/04/11 07:42:11;;;;;;;5.18;2.70;;;;;;;;;;5004648;28;20487;-66
2022/04/11 07:44:37;;;;;;;5.20;3.55;;;;;;;;;;5004604;28;20034;-69
2022/04/11 07:47:04;;;;;;;4.45;3.25;;;;;;;;;;5005085;28;20034;-69
2022/04/11 07:49:30;;;;;;;7.45;4.47;;;;;;;;;;4998635;28;20388;-70
2022/04/11 07:51:55;;;;;;;9.38;4.00;;;;;;;;;;5000229;28;20065;-69
2022/04/11 07:54:22;;;;;;;6.88;3.88;;;;;;;;;;5006081;28;20044;-67
2022/04/11 07:56:48;;;;;;;6.18;4.13;;;;;;;;;;5004201;28;20491;-68
2022/04/11 07:59:14;;;;;;;6.68;3.78;;;;;;;;;;5002619;28;20104;-69
2022/04/11 08:01:40;;;;;;;6.95;4.07;;;;;;;;;;4995623;28;20092;-68
2022/04/11 08:04:06;;;;;;;6.28;4.00;;;;;;;;;;5003023;28;20041;-68
2022/04/11 08:06:32;;;;;;;8.40;3.83;;;;;;;;;;5005710;28;20479;-68
2022/04/11 08:08:57;;;;;;;5.75;3.78;;;18.40;66.00;;;;;;5004761;28;20069;-65
2022/04/11 08:11:25;;;;;;;6.18;4.18;;;;;;;;;;4993200;28;20675;-65
2022/04/11 08:13:51;;;;;;;7.20;3.60;;;;;;;;;;5006288;28;20148;-69
2022/04/11 08:16:18;;;;;;;6.20;3.35;;;;;;;;;;5003063;28;20030;-68
2022/04/11 08:18:44;;;;;;;4.57;3.28;;;;;;;;;;5004402;28;20040;-69
2022/04/11 08:21:10;;;;;;;6.63;2.28;;;;;;;;;;4991927;28;20033;-68
2022/04/11 08:23:36;;;;;;;6.55;2.10;;;;;;;;;;5006275;28;20128;-67
2022/04/11 08:26:02;;;;;;;7.60;5.30;;;;;;;;;;5003120;28;20030;-69
2022/04/11 08:28:28;;;;;;;18.15;7.63;;;;;;;;;;5004666;28;20084;-67
2022/04/11 08:30:54;;;;;;;13.82;6.72;;;;;;;;;;4994303;28;20041;-69
2022/04/11 08:33:20;;;;;;;11.63;3.10;;;;;;;;;;5004919;28;20030;-69
2022/04/11 08:35:46;;;;;;;4.55;2.50;;;;;;;;;;5003969;28;20048;-68
2022/04/11 08:38:12;;;;;;;3.97;2.72;;;;;;;;;;5003465;28;20026;-67
2022/04/11 08:40:39;;;;;;;4.07;2.75;;;;;;;;;;4997806;28;20105;-69
2022/04/11 08:43:05;;;;;;;5.47;3.58;;;;;;;;;;5004975;28;20129;-68
2022/04/11 08:45:31;;;;;;;4.90;2.07;;;;;;;;;;5009483;28;20026;-68
2022/04/11 08:47:58;;;;;;;7.13;4.10;;;;;;;;;;5007282;28;20416;-68
2022/04/11 08:50:25;;;;;;;8.50;3.38;;;;;;;;;;4995685;28;20038;-66
2022/04/11 08:52:51;;;;;;;8.18;2.67;;;;;;;;;;5005718;28;20030;-70
2022/04/11 08:55:18;;;;;;;5.30;2.92;;;;;;;;;;5007201;28;20045;-72
2022/04/11 08:57:44;;;;;;;6.15;3.17;;;;;;;;;;5007405;28;20124;-72
2022/04/11 09:00:10;;;;;;;3.53;1.95;;;;;;;;;;5000325;28;20042;-69
2022/04/11 09:02:36;;;;;;;2.03;1.40;;;;;;;;;;5005104;28;20034;-69
2022/04/11 09:05:03;;;;;;;3.67;0.77;;;;;;;;;;5006104;28;21050;-71
2022/04/11 09:07:44;;;;;;;2.20;0.68;;;;;;;;;;5006150;28;20060;-71
2022/04/11 09:10:10;;;;;;;2.17;1.00;;;;;;;;;;4995998;28;20034;-70
2022/04/11 09:12:45;;;;;;;3.85;0.77;;;;;;;;;;5008248;28;20036;-71
2022/04/11 09:15:11;;;;;;;2.90;0.90;;;;;;;;;;5009479;28;20506;-71
2022/04/11 09:17:41;;;;;;;1.20;0.50;;;;;;;;;;5006695;28;20034;-70
2022/04/11 09:20:12;;;;;;;6.82;0.88;;;;;;;;;;4995790;28;20978;-70
2022/04/11 09:22:38;;;;;;;1.70;0.95;;;;;;;;;;5006083;28;20037;-72
2022/04/11 09:25:12;;;;;;;8.90;0.63;;;;;;;;;;5006615;28;20037;-71
2022/04/11 09:27:38;;;;;;;0.63;0.25;;;;;;;;;;5006828;28;20532;-71
2022/04/11 09:30:23;;;;;;;6.70;0.82;;;;;;;;;;4999763;28;20041;-72
2022/04/11 09:32:59;;;;;;;1.50;0.63;;;;;;;;;;5004688;28;20037;-74
2022/04/11 09:35:30;;;;;;;6.68;0.82;;;;;;;;;;4993018;28;20447;-73
2022/04/11 09:38:15;;;;;;;2.92;0.50;;;;;;;;;;5003866;28;20509;-71
2022/04/11 09:40:43;;;;;;;0.80;0.57;;;;;;;;;;4992142;28;20022;-71
2022/04/11 09:43:10;;;;;;;3.22;0.45;;;;;;;;;;5004252;28;20543;-72
2022/04/11 09:45:55;;;;;;;3.10;0.68;;;;;;;;;;5006507;28;20221;-68
2022/04/11 09:48:24;;;;;;;1.05;0.63;;;20.70;43.00;;;;;;5006873;28;20033;-68
2022/04/11 09:50:51;;;;;;;1.50;0.63;;;;;;;;;;4992801;28;20018;-68
2022/04/11 09:53:17;;;;;;;0.88;0.63;;;;;;;;;;5003956;28;20433;-68
2022/04/11 09:55:44;;;;;;;1.58;0.85;;;;;;;;;;5006607;28;20046;-67
2022/04/11 09:58:10;;;;;;;0.82;0.50;;;;;;;;;;5004818;28;20033;-67
2022/04/11 10:00:38;;;;;;;3.25;0.85;;;;;;;;;;4997151;28;20121;-66
2022/04/11 10:03:05;;;;;;;0.60;0.60;;;;;;;;;;5006756;28;20042;-66
2022/04/11 10:05:36;;;;;;;1.30;0.75;;;;;;;;;;5003525;28;20189;-66
2022/04/11 10:08:03;;;;;;;4.13;0.70;;;;;;;;;;5006071;28;20112;-65
2022/04/11 10:10:29;;;;;;;4.07;0.77;;;;;;;;;;4997937;28;20034;-68
2022/04/11 10:12:57;;;;;;;3.30;0.50;;;;;;;;;;5006745;28;20034;-68
2022/04/11 10:15:23;;;;;;;2.03;0.50;;;;;;;;;;5008009;28;20096;-67
2022/04/11 10:17:50;;;;;;;2.53;0.77;;;;;;;;;;5002378;28;20022;-68
2022/04/11 10:20:26;;;;;;;2.20;1.05;;;;;;;;;;4994956;28;20487;-68
2022/04/11 10:22:57;;;;;;;1.63;0.80;;;;;;;;;;5006142;28;20037;-67
2022/04/11 10:25:24;;;;;;;6.78;1.40;;;;;;;;;;5005084;28;20373;-67
2022/04/11 10:28:10;;;;;;;1.23;0.60;;;;;;;;;;5004129;28;20052;-64
2022/04/11 10:30:36;;;;;;;1.42;0.90;;;;;;;;;;4997761;28;20022;-65
2022/04/11 10:33:02;;;;;;;0.22;0.22;;;;;;;;;;5006140;28;20046;-64
2022/04/11 10:35:39;;;;;;;1.20;0.55;;;;;;;;;;5005857;28;20071;-64
2022/04/11 10:38:06;;;;;;;2.03;0.95;;;;;;;;;;5005007;28;20029;-63
2022/04/11 10:40:32;;;;;;;0.73;0.45;;;;;;;;;;4995868;28;20077;-64
2022/04/11 10:43:01;;;;;;;2.22;0.60;;;;;;;;;;5005432;28;20392;-64
2022/04/11 10:45:41;;;;;;;0.88;0.32;;;;;;;;;;5008071;28;20600;-63
2022/04/11 10:48:07;;;;;;;0.50;0.50;;;19.20;48.50;;;;;;5001629;28;20038;-63
2022/04/11 10:50:37;;;;;;;2.17;0.85;;;;;;;;;;4994041;28;20025;-63
2022/04/11 10:53:27;;;;;;;2.30;0.95;;;;;;;;;;5006686;28;20038;-63
2022/04/11 10:55:56;;;;;;;1.08;0.73;;;;;;;;;;5004117;28;20065;-63
2022/04/11 10:58:22;;;;;;;0.55;0.55;;;;;;;;;;5003404;28;20018;-64
2022/04/11 11:00:49;;;;;;;0.80;0.50;;;;;;;;;;4996870;28;20494;-62
2022/04/11 11:03:15;;;;;;;1.10;1.02;;;;;;;;;;5003486;28;20050;-63
2022/04/11 11:05:44;;;;;;;2.30;0.68;;;;;;;;;;5004613;28;20029;-65
2022/04/11 11:08:13;;;;;;;4.13;0.30;;;;;;;;;;5003901;28;20042;-63
2022/04/11 11:10:49;;;;;;;1.05;0.70;;;;;;;;;;4995214;28;20452;-63
2022/04/11 11:13:30;;;;;;;0.85;0.40;;;;;;;;;;5004925;28;20344;-64
2022/04/11 11:16:19;;;;;;;4.13;0.75;;;;;;;;;;5005438;28;20526;-64
2022/04/11 11:18:48;;;;;;;1.40;0.50;;;;;;;;;;5005595;28;20042;-63
2022/04/11 11:21:15;;;;;;;0.88;0.40;;;;;;;;;;4994774;28;20037;-64
2022/04/11 11:23:41;;;;;;;5.82;0.82;;;;;;;;;;5005861;28;20050;-63
2022/04/11 11:26:07;;;;;;;1.23;0.35;;;;;;;;;;5004997;28;20085;-64
2022/04/11 11:28:33;;;;;;;0.70;0.57;;;;;;;;;;5002552;28;20034;-63
2022/04/11 11:30:59;;;;;;;2.75;0.70;;;;;;;;;;4997524;28;20030;-64
2022/04/11 11:33:27;;;;;;;1.35;0.60;;;;;;;;;;5006227;28;20053;-64
2022/04/11 11:35:54;;;;;;;0.90;0.52;;;;;;;;;;5004134;28;20113;-63
2022/04/11 11:38:21;;;;;;;0.45;0.30;;;;;;;;;;5002183;28;20025;-68
2022/04/11 11:40:51;;;;;;;;;;;22.30;44.90;;;;;;4995827;28;20049;-67
2022/04/11 11:43:18;;;;;;;3.05;0.88;;;;;;;;;;5004052;28;19922;-67
2022/04/11 11:45:44;;;;;;;1.97;0.40;;;;;;;;;;5005511;28;20030;-68
2022/04/11 11:48:20;;;;;;;1.42;0.60;;;;;;;;;;5004230;28;20364;-69
2022/04/11 11:50:47;;;;;;;1.15;0.70;;;;;;;;;;4994814;28;20117;-68
2022/04/11 11:53:13;;;;;;;1.23;0.50;;;;;;;;;;5004239;28;20519;-67
2022/04/11 11:56:00;;;;;;;3.90;0.55;;;;;;;;;;5004880;28;20127;-68
2022/04/11 11:58:34;;;;;;;1.13;0.60;;;19.20;49.10;;;;;;5002239;28;20712;-68
2022/04/11 12:01:00;;;;;;;1.13;0.65;;;;;;;;;;4994111;28;20037;-67
2022/04/11 12:06:11;;;;;;;1.45;0.60;;;20.10;69.20;;;;;;5006080;28;20037;-64
2022/04/11 12:08:37;;;;;;;2.65;0.75;;;;;;;;;;5002494;28;20410;-63
2022/04/11 12:11:03;;;;;;;0.68;0.63;;;;;;;;;;4994728;28;20022;-64
2022/04/11 12:13:31;;;;;;;2.17;0.57;;;;;;;;;;5005606;28;20122;-65
2022/04/11 12:15:56;;;;;;;;;;;;;;;;;;5010044;28;20026;-64
2022/04/11 12:18:22;;;;;;;0.32;0.32;;;20.80;65.30;;;;;;5008683;28;20325;-68
2022/04/11 12:20:48;;;;;;;10.23;0.60;;;;;;;;;;4997587;28;20064;-66
2022/04/11 12:23:15;;;;;;;1.17;0.55;;;;;;;;;;5008692;28;20140;-64
2022/04/11 12:25:52;;;;;;;3.15;0.60;;;;;;;;;;5006338;28;20030;-64
2022/04/11 12:28:26;;;;;;;2.58;1.75;;;;;;;;;;5006594;28;20092;-65
2022/04/11 12:31:11;;;;;;;1.25;0.55;;;;;;;;;;4999326;28;20084;-64
2022/04/11 12:33:46;;;;;;;1.75;0.95;;;;;;;;;;5008837;28;20112;-67
2022/04/11 12:36:27;;;;;;;1.17;0.90;;;;;;;;;;5010351;28;20164;-68
2022/04/11 12:38:57;;;;;;;1.45;0.70;;;;;;;;;;5008362;28;20462;-67
2022/04/11 12:41:27;;;;;;;1.02;0.50;;;;;;;;;;4997273;28;20026;-67
2022/04/11 12:44:11;;;;;;;3.03;0.55;;;;;;;;;;5007685;28;20056;-68
2022/04/11 12:46:38;;;;;;;1.15;1.05;;;;;;;;;;5005248;28;20025;-68
2022/04/11 12:49:05;;;;;;;0.65;0.43;;;;;;;;;;5005009;28;20096;-68
2022/04/11 12:51:31;;;;;;;2.22;0.82;;;;;;;;;;4997710;28;20030;-67
2022/04/11 12:54:16;;;;;;;1.20;0.50;;;;;;;;;;5007995;28;20097;-66
2022/04/11 12:56:42;;;;;;;3.95;0.50;;;;;;;;;;5007154;28;20059;-66
2022/04/11 12:59:08;;;;;;;0.88;0.32;;;;;;;;;;5006024;28;20029;-67
2022/04/11 13:01:52;;;;;;;1.73;0.95;;;;;;;;;;4994460;28;20036;-63
2022/04/11 13:04:19;;;;;;;2.05;0.85;;;;;;;;;;5006496;28;20029;-68
2022/04/11 13:06:45;;;;;;;1.05;0.50;;;;;;;;;;5008173;28;20597;-66
2022/04/11 13:09:11;;;;;;;4.60;0.68;;;;;;;;;;5007787;28;20129;-68
2022/04/11 13:11:44;;;;;;;1.67;0.30;;;;;;;;;;4993034;28;20113;-66
2022/04/11 13:14:10;;;;;;;6.13;0.57;;;;;;;;;;5006397;28;20105;-67
2022/04/11 13:19:21;;;;;;;1.20;0.52;;;;;;;;;;5006186;28;20053;-68
2022/04/11 13:21:48;;;;;;;5.82;0.63;;;;;;;;;;4994063;28;20112;-68
2022/04/11 13:24:14;;;;;;;0.70;0.30;;;;;;;;;;5007195;28;20029;-67
2022/04/11 13:26:40;;;;;;;5.38;0.70;;;;;;;;;;5002611;28;20433;-69
2022/04/11 13:29:06;;;;;;;3.65;2.13;;;;;;;;;;5007345;28;20038;-68
2022/04/11 13:31:32;;;;;;;0.95;0.60;;;;;;;;;;4991811;28;20033;-68
2022/04/11 13:33:58;;;;;;;2.08;0.60;;;;;;;;;;5006578;28;20041;-68
2022/04/11 13:36:24;;;;;;;2.72;0.82;;;;;;;;;;5007997;28;20026;-68
2022/04/11 13:38:50;;;;;;;0.95;0.60;;;;;;;;;;5005769;28;20026;-67
2022/04/11 13:41:16;;;;;;;2.92;0.63;;;;;;;;;;4987565;28;20037;-68
2022/04/11 13:43:43;;;;;;;1.10;0.60;;;;;;;;;;5005214;28;20119;-68
2022/04/11 13:46:09;;;;;;;1.85;1.20;;;;;;;;;;5005916;28;20030;-64
2022/04/11 13:48:35;;;;;;;2.47;1.02;;;;;;;;;;5005276;28;20033;-67
2022/04/11 13:51:01;;;;;;;1.60;0.98;;;;;;;;;;4992765;28;20030;-67
2022/04/11 13:53:30;;;;;;;2.50;0.88;;;;;;;;;;4998130;28;20025;-67
2022/04/11 13:55:56;;;;;;;1.10;0.70;;;;;;;;;;5004590;28;20057;-66
2022/04/11 13:58:22;;;;;;;1.15;0.63;;;;;;;;;;5005038;28;20109;-68
2022/04/11 14:00:48;;;;;;;0.30;0.30;;;;;;;;;;4990238;28;20140;-67
2022/04/11 14:03:14;;;;;;;0.35;0.30;;;;;;;;;;5008517;28;20442;-67
2022/04/11 14:05:41;;;;;;;3.65;0.80;;;;;;;;;;5003407;28;20030;-68
2022/04/11 14:08:07;;;;;;;1.80;0.50;;;18.60;51.00;;;;;;5003528;28;20394;-68
2022/04/11 14:10:33;;;;;;;1.00;0.80;;;19.10;70.50;;;;;;4988374;28;20042;-70
2022/04/11 14:12:59;;;;;;;1.98;0.63;;;;;;;;;;5004033;28;20826;-65
2022/04/11 14:15:25;;;;;;;2.95;0.60;;;;;;;;;;5005028;28;20026;-64
2022/04/11 14:17:51;;;;;;;2.40;0.68;;;;;;;;;;5003080;28;20041;-65
2022/04/11 14:20:17;;;;;;;1.60;0.88;;;;;;;;;;4988952;28;20076;-65
2022/04/11 14:22:43;;;;;;;1.67;0.60;;;19.60;70.10;;;;;;5004786;28;20026;-67
2022/04/11 14:25:09;;;;;;;1.35;0.40;;;;;;;;;;5005143;28;20632;-69
2022/04/11 14:27:35;;;;;;;1.13;0.63;;;;;;;;;;5007192;28;20043;-68
2022/04/11 14:30:01;;;;;;;2.15;0.90;;;;;;;;;;4996126;28;20041;-67
2022/04/11 14:32:27;;;;;;;1.25;0.88;;;;;;;;;;5000424;28;20033;-67
2022/04/11 14:34:53;;;;;;;1.08;0.60;;;;;;;;;;5006842;28;20434;-68
2022/04/11 14:37:19;;;;;;;1.42;0.77;;;;;;;;;;5003777;28;20029;-69
2022/04/11 14:39:45;;;;;;;2.13;1.20;;;;;;;;;;5001368;28;20033;-67